sensor_id;sensor_type;location;lat;lon;timestamp;P1;durP1;ratioP1;P2;durP2;ratioP2
8466;SDS011;4270;48.148;11.648;2022-09-25T00:00:35;16.80;;;14.20;;
8466;SDS011;4270;48.148;11.648;2022-09-25T00:03:01;17.13;;;13.87;;
8466;SDS011;4270;48.148;11.648;2022-09-25T00:05:26;15.33;;;13.13;;
8466;SDS011;4270;48.148;11.648;2022-09-25T00:07:52;14.63;;;13.07;;
8466;SDS011;4270;48.148;11.648;2022-09-25T00:10:17;14.70;;;11.80;;
8466;SDS011;4270;48.148;11.648;2022-09-25T00:12:42;15.53;;;13.90;;
8466;SDS011;4270;48.148;11.648;2022-09-25T00:15:08;15.40;;;13.17;;
8466;SDS011;4270;48.148;11.648;2022-09-25T00:17:33;14.33;;;12.83;;
8466;SDS011;4270;48.148;11.648;2022-09-25T00:19:58;14.90;;;13.40;;
8466;SDS011;4270;48.148;11.648;2022-09-25T00:22:24;15.47;;;12.53;;
8466;SDS011;4270;48.148;11.648;2022-09-25T00:24:50;14.13;;;12.63;;
8466;SDS011;4270;48.148;11.648;2022-09-25T00:27:15;14.73;;;13.20;;
8466;SDS011;4270;48.148;11.648;2022-09-25T00:29:42;15.43;;;13.23;;
8466;SDS011;4270;48.148;11.648;2022-09-25T00:32:08;15.40;;;12.00;;
8466;SDS011;4270;48.148;11.648;2022-09-25T00:34:33;17.70;;;12.37;;
8466;SDS011;4270;48.148;11.648;2022-09-25T00:36:59;14.00;;;12.50;;
8466;SDS011;4270;48.148;11.648;2022-09-25T00:39:24;15.23;;;13.10;;
8466;SDS011;4270;48.148;11.648;2022-09-25T00:41:50;13.93;;;11.87;;
8466;SDS011;4270;48.148;11.648;2022-09-25T00:46:59;13.30;;;11.80;;
8466;SDS011;4270;48.148;11.648;2022-09-25T00:49:24;14.50;;;12.20;;
8466;SDS011;4270;48.148;11.648;2022-09-25T00:54:19;14.10;;;12.27;;
8466;SDS011;4270;48.148;11.648;2022-09-25T00:56:46;12.87;;;11.23;;
8466;SDS011;4270;48.148;11.648;2022-09-25T00:59:13;13.53;;;12.23;;
8466;SDS011;4270;48.148;11.648;2022-09-25T01:01:40;12.30;;;10.30;;
8466;SDS011;4270;48.148;11.648;2022-09-25T01:04:05;12.80;;;11.47;;
8466;SDS011;4270;48.148;11.648;2022-09-25T01:06:31;12.23;;;10.93;;
8466;SDS011;4270;48.148;11.648;2022-09-25T01:08:56;11.87;;;10.50;;
8466;SDS011;4270;48.148;11.648;2022-09-25T01:11:23;13.70;;;10.67;;
8466;SDS011;4270;48.148;11.648;2022-09-25T01:13:48;13.30;;;10.90;;
8466;SDS011;4270;48.148;11.648;2022-09-25T01:16:15;11.87;;;9.80;;
8466;SDS011;4270;48.148;11.648;2022-09-25T01:18:50;11.90;;;10.63;;
8466;SDS011;4270;48.148;11.648;2022-09-25T01:26:24;11.57;;;10.30;;
8466;SDS011;4270;48.148;11.648;2022-09-25T01:31:54;16.20;;;10.47;;
8466;SDS011;4270;48.148;11.648;2022-09-25T01:34:24;12.40;;;11.10;;
8466;SDS011;4270;48.148;11.648;2022-09-25T01:36:53;12.00;;;10.43;;
8466;SDS011;4270;48.148;11.648;2022-09-25T01:39:21;10.83;;;9.60;;
8466;SDS011;4270;48.148;11.648;2022-09-25T01:44:31;11.17;;;9.97;;
8466;SDS011;4270;48.148;11.648;2022-09-25T01:47:06;12.60;;;10.20;;
8466;SDS011;4270;48.148;11.648;2022-09-25T01:49:37;11.80;;;10.30;;
8466;SDS011;4270;48.148;11.648;2022-09-25T01:52:05;10.80;;;9.60;;
8466;SDS011;4270;48.148;11.648;2022-09-25T01:54:33;10.47;;;9.03;;
8466;SDS011;4270;48.148;11.648;2022-09-25T01:57:17;12.13;;;10.60;;
8466;SDS011;4270;48.148;11.648;2022-09-25T01:59:48;10.17;;;9.00;;
8466;SDS011;4270;48.148;11.648;2022-09-25T02:02:18;10.50;;;8.60;;
8466;SDS011;4270;48.148;11.648;2022-09-25T02:04:52;12.17;;;9.93;;
8466;SDS011;4270;48.148;11.648;2022-09-25T02:07:19;12.23;;;9.77;;
8466;SDS011;4270;48.148;11.648;2022-09-25T02:09:50;9.47;;;8.47;;
8466;SDS011;4270;48.148;11.648;2022-09-25T02:12:21;10.07;;;8.70;;
8466;SDS011;4270;48.148;11.648;2022-09-25T02:14:58;11.47;;;9.07;;
8466;SDS011;4270;48.148;11.648;2022-09-25T02:17:28;10.40;;;9.40;;
8466;SDS011;4270;48.148;11.648;2022-09-25T02:20:18;9.70;;;8.70;;
8466;SDS011;4270;48.148;11.648;2022-09-25T02:22:57;9.17;;;8.27;;
8466;SDS011;4270;48.148;11.648;2022-09-25T02:25:29;9.50;;;8.57;;
8466;SDS011;4270;48.148;11.648;2022-09-25T02:27:59;8.67;;;7.77;;
8466;SDS011;4270;48.148;11.648;2022-09-25T02:30:25;9.90;;;8.70;;
8466;SDS011;4270;48.148;11.648;2022-09-25T02:32:50;10.03;;;8.80;;
8466;SDS011;4270;48.148;11.648;2022-09-25T02:35:15;14.10;;;9.93;;
8466;SDS011;4270;48.148;11.648;2022-09-25T02:37:40;11.87;;;9.73;;
8466;SDS011;4270;48.148;11.648;2022-09-25T02:40:06;11.40;;;9.33;;
8466;SDS011;4270;48.148;11.648;2022-09-25T02:42:39;18.93;;;9.80;;
8466;SDS011;4270;48.148;11.648;2022-09-25T02:55:31;10.95;;;8.90;;
8466;SDS011;4270;48.148;11.648;2022-09-25T02:58:01;9.10;;;8.20;;
8466;SDS011;4270;48.148;11.648;2022-09-25T03:00:28;9.50;;;7.17;;
8466;SDS011;4270;48.148;11.648;2022-09-25T03:02:55;8.53;;;7.50;;
8466;SDS011;4270;48.148;11.648;2022-09-25T03:05:23;9.07;;;7.40;;
8466;SDS011;4270;48.148;11.648;2022-09-25T03:07:49;8.00;;;7.13;;
8466;SDS011;4270;48.148;11.648;2022-09-25T03:10:33;8.90;;;7.27;;
8466;SDS011;4270;48.148;11.648;2022-09-25T03:15:40;8.73;;;6.87;;
8466;SDS011;4270;48.148;11.648;2022-09-25T03:18:07;8.37;;;7.57;;
8466;SDS011;4270;48.148;11.648;2022-09-25T03:20:33;10.40;;;6.93;;
8466;SDS011;4270;48.148;11.648;2022-09-25T03:22:58;8.40;;;7.47;;
8466;SDS011;4270;48.148;11.648;2022-09-25T03:25:23;7.37;;;6.67;;
8466;SDS011;4270;48.148;11.648;2022-09-25T03:27:48;7.53;;;6.83;;
8466;SDS011;4270;48.148;11.648;2022-09-25T03:30:14;7.60;;;6.80;;
8466;SDS011;4270;48.148;11.648;2022-09-25T03:32:39;8.23;;;6.43;;
8466;SDS011;4270;48.148;11.648;2022-09-25T03:35:06;7.50;;;6.80;;
8466;SDS011;4270;48.148;11.648;2022-09-25T03:37:31;7.13;;;6.50;;
8466;SDS011;4270;48.148;11.648;2022-09-25T03:39:56;7.43;;;6.73;;
8466;SDS011;4270;48.148;11.648;2022-09-25T03:42:21;7.57;;;6.83;;
8466;SDS011;4270;48.148;11.648;2022-09-25T03:44:50;6.90;;;6.27;;
8466;SDS011;4270;48.148;11.648;2022-09-25T03:47:16;8.53;;;7.37;;
8466;SDS011;4270;48.148;11.648;2022-09-25T03:49:41;7.97;;;7.17;;
8466;SDS011;4270;48.148;11.648;2022-09-25T03:52:06;7.10;;;6.50;;
8466;SDS011;4270;48.148;11.648;2022-09-25T03:54:33;9.10;;;8.13;;
8466;SDS011;4270;48.148;11.648;2022-09-25T03:56:58;6.53;;;5.93;;
8466;SDS011;4270;48.148;11.648;2022-09-25T03:59:23;7.77;;;7.00;;
8466;SDS011;4270;48.148;11.648;2022-09-25T04:01:48;7.50;;;5.97;;
8466;SDS011;4270;48.148;11.648;2022-09-25T04:04:13;8.40;;;7.60;;
8466;SDS011;4270;48.148;11.648;2022-09-25T04:06:39;8.40;;;7.60;;
8466;SDS011;4270;48.148;11.648;2022-09-25T04:09:04;7.17;;;6.47;;
8466;SDS011;4270;48.148;11.648;2022-09-25T04:11:29;9.03;;;8.13;;
8466;SDS011;4270;48.148;11.648;2022-09-25T04:13:55;8.73;;;7.20;;
8466;SDS011;4270;48.148;11.648;2022-09-25T04:16:21;9.93;;;6.47;;
8466;SDS011;4270;48.148;11.648;2022-09-25T04:18:47;8.00;;;7.03;;
8466;SDS011;4270;48.148;11.648;2022-09-25T04:21:12;7.43;;;6.70;;
8466;SDS011;4270;48.148;11.648;2022-09-25T04:23:38;7.23;;;6.53;;
8466;SDS011;4270;48.148;11.648;2022-09-25T04:26:03;7.70;;;6.53;;
8466;SDS011;4270;48.148;11.648;2022-09-25T04:28:28;8.10;;;7.30;;
8466;SDS011;4270;48.148;11.648;2022-09-25T04:30:56;8.20;;;7.40;;
8466;SDS011;4270;48.148;11.648;2022-09-25T04:33:21;7.57;;;6.87;;
8466;SDS011;4270;48.148;11.648;2022-09-25T04:36:05;7.10;;;6.40;;
8466;SDS011;4270;48.148;11.648;2022-09-25T04:38:30;7.93;;;7.03;;
8466;SDS011;4270;48.148;11.648;2022-09-25T04:40:56;7.77;;;7.07;;
8466;SDS011;4270;48.148;11.648;2022-09-25T04:43:21;8.97;;;8.17;;
8466;SDS011;4270;48.148;11.648;2022-09-25T04:45:47;7.97;;;7.27;;
8466;SDS011;4270;48.148;11.648;2022-09-25T04:48:12;9.27;;;7.63;;
8466;SDS011;4270;48.148;11.648;2022-09-25T04:50:38;8.97;;;7.77;;
8466;SDS011;4270;48.148;11.648;2022-09-25T04:53:03;8.57;;;7.50;;
8466;SDS011;4270;48.148;11.648;2022-09-25T04:55:28;8.07;;;7.27;;
8466;SDS011;4270;48.148;11.648;2022-09-25T04:57:54;9.37;;;7.27;;
8466;SDS011;4270;48.148;11.648;2022-09-25T05:00:19;7.37;;;6.60;;
8466;SDS011;4270;48.148;11.648;2022-09-25T05:02:45;8.97;;;7.93;;
8466;SDS011;4270;48.148;11.648;2022-09-25T05:05:10;7.87;;;7.10;;
8466;SDS011;4270;48.148;11.648;2022-09-25T05:07:35;8.70;;;7.70;;
8466;SDS011;4270;48.148;11.648;2022-09-25T05:10:00;8.10;;;7.30;;
8466;SDS011;4270;48.148;11.648;2022-09-25T05:12:26;9.87;;;7.37;;
8466;SDS011;4270;48.148;11.648;2022-09-25T05:14:51;9.10;;;7.20;;
8466;SDS011;4270;48.148;11.648;2022-09-25T05:17:16;8.00;;;6.57;;
8466;SDS011;4270;48.148;11.648;2022-09-25T05:19:41;9.43;;;7.50;;
8466;SDS011;4270;48.148;11.648;2022-09-25T05:22:06;8.57;;;7.67;;
8466;SDS011;4270;48.148;11.648;2022-09-25T05:24:31;7.63;;;6.93;;
8466;SDS011;4270;48.148;11.648;2022-09-25T05:26:57;7.60;;;6.90;;
8466;SDS011;4270;48.148;11.648;2022-09-25T05:29:22;7.90;;;7.20;;
8466;SDS011;4270;48.148;11.648;2022-09-25T05:31:51;10.10;;;7.73;;
8466;SDS011;4270;48.148;11.648;2022-09-25T05:34:16;8.27;;;7.50;;
8466;SDS011;4270;48.148;11.648;2022-09-25T05:36:41;8.83;;;7.93;;
8466;SDS011;4270;48.148;11.648;2022-09-25T05:39:09;8.50;;;7.70;;
8466;SDS011;4270;48.148;11.648;2022-09-25T05:41:35;8.53;;;7.60;;
8466;SDS011;4270;48.148;11.648;2022-09-25T05:44:00;8.20;;;7.40;;
8466;SDS011;4270;48.148;11.648;2022-09-25T05:46:30;8.97;;;8.03;;
8466;SDS011;4270;48.148;11.648;2022-09-25T05:48:55;8.27;;;7.43;;
8466;SDS011;4270;48.148;11.648;2022-09-25T05:51:20;9.63;;;7.87;;
8466;SDS011;4270;48.148;11.648;2022-09-25T05:53:46;8.50;;;7.33;;
8466;SDS011;4270;48.148;11.648;2022-09-25T05:56:11;7.90;;;7.10;;
8466;SDS011;4270;48.148;11.648;2022-09-25T05:58:37;11.60;;;6.93;;
8466;SDS011;4270;48.148;11.648;2022-09-25T06:01:03;9.60;;;7.23;;
8466;SDS011;4270;48.148;11.648;2022-09-25T06:03:29;7.23;;;6.53;;
8466;SDS011;4270;48.148;11.648;2022-09-25T06:05:57;8.20;;;7.30;;
8466;SDS011;4270;48.148;11.648;2022-09-25T06:08:23;9.30;;;7.57;;
8466;SDS011;4270;48.148;11.648;2022-09-25T06:10:52;7.47;;;6.67;;
8466;SDS011;4270;48.148;11.648;2022-09-25T06:13:18;7.20;;;6.50;;
8466;SDS011;4270;48.148;11.648;2022-09-25T06:15:43;7.50;;;5.90;;
8466;SDS011;4270;48.148;11.648;2022-09-25T06:18:08;7.20;;;6.40;;
8466;SDS011;4270;48.148;11.648;2022-09-25T06:20:34;7.33;;;6.57;;
8466;SDS011;4270;48.148;11.648;2022-09-25T06:22:59;7.33;;;6.63;;
8466;SDS011;4270;48.148;11.648;2022-09-25T06:25:26;8.13;;;6.90;;
8466;SDS011;4270;48.148;11.648;2022-09-25T06:27:52;7.63;;;6.80;;
8466;SDS011;4270;48.148;11.648;2022-09-25T06:30:17;6.20;;;5.60;;
8466;SDS011;4270;48.148;11.648;2022-09-25T06:32:43;7.37;;;6.53;;
8466;SDS011;4270;48.148;11.648;2022-09-25T06:35:09;6.30;;;5.70;;
8466;SDS011;4270;48.148;11.648;2022-09-25T06:37:34;6.70;;;6.10;;
8466;SDS011;4270;48.148;11.648;2022-09-25T06:39:59;8.70;;;6.30;;
8466;SDS011;4270;48.148;11.648;2022-09-25T06:42:24;6.23;;;5.63;;
8466;SDS011;4270;48.148;11.648;2022-09-25T06:44:49;6.50;;;5.90;;
8466;SDS011;4270;48.148;11.648;2022-09-25T06:47:14;6.83;;;6.13;;
8466;SDS011;4270;48.148;11.648;2022-09-25T06:49:40;6.83;;;6.17;;
8466;SDS011;4270;48.148;11.648;2022-09-25T06:52:05;6.87;;;6.17;;
8466;SDS011;4270;48.148;11.648;2022-09-25T06:54:30;7.53;;;6.73;;
8466;SDS011;4270;48.148;11.648;2022-09-25T06:56:55;6.50;;;5.90;;
8466;SDS011;4270;48.148;11.648;2022-09-25T06:59:20;11.27;;;6.43;;
8466;SDS011;4270;48.148;11.648;2022-09-25T07:01:46;6.90;;;6.30;;
8466;SDS011;4270;48.148;11.648;2022-09-25T07:04:11;6.77;;;6.10;;
8466;SDS011;4270;48.148;11.648;2022-09-25T07:06:37;7.60;;;6.90;;
8466;SDS011;4270;48.148;11.648;2022-09-25T07:09:02;6.60;;;5.80;;
8466;SDS011;4270;48.148;11.648;2022-09-25T07:11:27;7.30;;;6.03;;
8466;SDS011;4270;48.148;11.648;2022-09-25T07:13:53;5.83;;;5.30;;
8466;SDS011;4270;48.148;11.648;2022-09-25T07:16:19;6.60;;;6.00;;
8466;SDS011;4270;48.148;11.648;2022-09-25T07:18:44;6.00;;;5.50;;
8466;SDS011;4270;48.148;11.648;2022-09-25T07:21:12;7.13;;;6.03;;
8466;SDS011;4270;48.148;11.648;2022-09-25T07:23:37;7.80;;;6.60;;
8466;SDS011;4270;48.148;11.648;2022-09-25T07:26:06;9.13;;;6.63;;
8466;SDS011;4270;48.148;11.648;2022-09-25T07:28:32;7.07;;;6.27;;
8466;SDS011;4270;48.148;11.648;2022-09-25T07:30:57;7.83;;;6.10;;
8466;SDS011;4270;48.148;11.648;2022-09-25T07:33:22;11.67;;;6.10;;
8466;SDS011;4270;48.148;11.648;2022-09-25T07:35:49;7.57;;;6.87;;
8466;SDS011;4270;48.148;11.648;2022-09-25T07:38:14;8.03;;;7.27;;
8466;SDS011;4270;48.148;11.648;2022-09-25T07:40:40;7.60;;;6.87;;
8466;SDS011;4270;48.148;11.648;2022-09-25T07:43:05;11.63;;;10.43;;
8466;SDS011;4270;48.148;11.648;2022-09-25T07:45:31;12.97;;;11.67;;
8466;SDS011;4270;48.148;11.648;2022-09-25T07:47:56;21.30;;;19.10;;
8466;SDS011;4270;48.148;11.648;2022-09-25T07:50:22;14.10;;;12.70;;
8466;SDS011;4270;48.148;11.648;2022-09-25T07:52:47;10.73;;;9.40;;
8466;SDS011;4270;48.148;11.648;2022-09-25T07:55:12;15.70;;;14.20;;
8466;SDS011;4270;48.148;11.648;2022-09-25T07:57:37;11.47;;;9.80;;
8466;SDS011;4270;48.148;11.648;2022-09-25T08:00:02;8.70;;;7.90;;
8466;SDS011;4270;48.148;11.648;2022-09-25T08:02:29;8.47;;;7.67;;
8466;SDS011;4270;48.148;11.648;2022-09-25T08:04:54;7.97;;;7.27;;
8466;SDS011;4270;48.148;11.648;2022-09-25T08:07:19;8.80;;;8.00;;
8466;SDS011;4270;48.148;11.648;2022-09-25T08:09:44;8.43;;;7.73;;
8466;SDS011;4270;48.148;11.648;2022-09-25T08:12:10;9.13;;;8.30;;
8466;SDS011;4270;48.148;11.648;2022-09-25T08:14:36;9.53;;;8.53;;
8466;SDS011;4270;48.148;11.648;2022-09-25T08:17:02;10.03;;;9.13;;
8466;SDS011;4270;48.148;11.648;2022-09-25T08:19:27;11.40;;;10.30;;
8466;SDS011;4270;48.148;11.648;2022-09-25T08:21:52;12.00;;;10.30;;
8466;SDS011;4270;48.148;11.648;2022-09-25T08:24:17;12.90;;;11.50;;
8466;SDS011;4270;48.148;11.648;2022-09-25T08:26:42;13.43;;;12.13;;
8466;SDS011;4270;48.148;11.648;2022-09-25T08:29:08;13.27;;;12.07;;
8466;SDS011;4270;48.148;11.648;2022-09-25T08:31:33;13.17;;;11.77;;
8466;SDS011;4270;48.148;11.648;2022-09-25T08:33:58;13.10;;;11.73;;
8466;SDS011;4270;48.148;11.648;2022-09-25T08:36:23;13.83;;;12.20;;
8466;SDS011;4270;48.148;11.648;2022-09-25T08:38:50;14.03;;;12.60;;
8466;SDS011;4270;48.148;11.648;2022-09-25T08:41:26;12.87;;;11.07;;
8466;SDS011;4270;48.148;11.648;2022-09-25T08:46:22;14.93;;;12.60;;
8466;SDS011;4270;48.148;11.648;2022-09-25T08:49:06;14.87;;;13.33;;
8466;SDS011;4270;48.148;11.648;2022-09-25T08:54:02;16.20;;;14.60;;
8466;SDS011;4270;48.148;11.648;2022-09-25T08:56:28;15.20;;;13.60;;
8466;SDS011;4270;48.148;11.648;2022-09-25T08:59:12;18.00;;;16.10;;
8466;SDS011;4270;48.148;11.648;2022-09-25T09:01:45;18.43;;;16.43;;
8466;SDS011;4270;48.148;11.648;2022-09-25T09:06:36;24.47;;;20.90;;
8466;SDS011;4270;48.148;11.648;2022-09-25T09:09:06;18.63;;;16.60;;
8466;SDS011;4270;48.148;11.648;2022-09-25T09:11:36;19.77;;;17.40;;
8466;SDS011;4270;48.148;11.648;2022-09-25T09:14:05;16.13;;;14.23;;
8466;SDS011;4270;48.148;11.648;2022-09-25T09:16:38;15.70;;;13.17;;
8466;SDS011;4270;48.148;11.648;2022-09-25T09:19:05;14.73;;;12.73;;
8466;SDS011;4270;48.148;11.648;2022-09-25T09:21:35;18.33;;;13.30;;
8466;SDS011;4270;48.148;11.648;2022-09-25T09:24:05;15.33;;;12.73;;
8466;SDS011;4270;48.148;11.648;2022-09-25T09:34:02;13.93;;;12.53;;
8466;SDS011;4270;48.148;11.648;2022-09-25T09:44:27;17.87;;;14.03;;
8466;SDS011;4270;48.148;11.648;2022-09-25T09:46:58;14.63;;;13.13;;
8466;SDS011;4270;48.148;11.648;2022-09-25T09:49:35;14.93;;;13.37;;
8466;SDS011;4270;48.148;11.648;2022-09-25T09:57:26;14.37;;;12.83;;
8466;SDS011;4270;48.148;11.648;2022-09-25T10:00:03;19.60;;;13.50;;
8466;SDS011;4270;48.148;11.648;2022-09-25T10:02:35;14.23;;;12.80;;
8466;SDS011;4270;48.148;11.648;2022-09-25T10:05:03;13.50;;;12.20;;
8466;SDS011;4270;48.148;11.648;2022-09-25T10:07:30;14.07;;;12.60;;
8466;SDS011;4270;48.148;11.648;2022-09-25T10:09:57;14.13;;;12.63;;
8466;SDS011;4270;48.148;11.648;2022-09-25T10:12:32;14.00;;;11.97;;
8466;SDS011;4270;48.148;11.648;2022-09-25T10:15:00;11.53;;;10.43;;
8466;SDS011;4270;48.148;11.648;2022-09-25T10:17:27;12.00;;;10.70;;
8466;SDS011;4270;48.148;11.648;2022-09-25T10:19:53;10.67;;;9.70;;
8466;SDS011;4270;48.148;11.648;2022-09-25T10:22:25;9.83;;;8.90;;
8466;SDS011;4270;48.148;11.648;2022-09-25T10:24:56;11.00;;;10.00;;
8466;SDS011;4270;48.148;11.648;2022-09-25T10:30:05;11.27;;;10.03;;
8466;SDS011;4270;48.148;11.648;2022-09-25T10:32:34;11.07;;;10.03;;
8466;SDS011;4270;48.148;11.648;2022-09-25T10:34:59;11.90;;;10.70;;
8466;SDS011;4270;48.148;11.648;2022-09-25T10:37:26;11.03;;;9.93;;
8466;SDS011;4270;48.148;11.648;2022-09-25T10:40:28;9.43;;;8.60;;
8466;SDS011;4270;48.148;11.648;2022-09-25T10:42:46;10.13;;;9.23;;
8466;SDS011;4270;48.148;11.648;2022-09-25T10:45:25;10.57;;;9.57;;
8466;SDS011;4270;48.148;11.648;2022-09-25T10:47:51;10.23;;;9.23;;
8466;SDS011;4270;48.148;11.648;2022-09-25T10:50:34;9.07;;;8.20;;
8466;SDS011;4270;48.148;11.648;2022-09-25T10:53:01;10.90;;;9.90;;
8466;SDS011;4270;48.148;11.648;2022-09-25T10:55:31;10.50;;;9.50;;
8466;SDS011;4270;48.148;11.648;2022-09-25T11:00:26;11.10;;;10.00;;
8466;SDS011;4270;48.148;11.648;2022-09-25T11:02:52;11.30;;;10.10;;
8466;SDS011;4270;48.148;11.648;2022-09-25T11:05:26;11.20;;;10.07;;
8466;SDS011;4270;48.148;11.648;2022-09-25T11:07:53;9.47;;;8.57;;
8466;SDS011;4270;48.148;11.648;2022-09-25T11:10:20;10.17;;;9.17;;
8466;SDS011;4270;48.148;11.648;2022-09-25T11:12:46;10.43;;;9.43;;
8466;SDS011;4270;48.148;11.648;2022-09-25T11:15:15;9.93;;;8.93;;
8466;SDS011;4270;48.148;11.648;2022-09-25T11:17:41;10.97;;;9.90;;
8466;SDS011;4270;48.148;11.648;2022-09-25T11:22:40;10.17;;;9.07;;
8466;SDS011;4270;48.148;11.648;2022-09-25T11:25:11;9.43;;;8.53;;
8466;SDS011;4270;48.148;11.648;2022-09-25T11:27:39;9.37;;;8.47;;
8466;SDS011;4270;48.148;11.648;2022-09-25T11:32:39;8.20;;;7.17;;
8466;SDS011;4270;48.148;11.648;2022-09-25T11:43:10;8.57;;;7.73;;
8466;SDS011;4270;48.148;11.648;2022-09-25T11:45:44;8.40;;;7.60;;
8466;SDS011;4270;48.148;11.648;2022-09-25T11:48:15;8.77;;;7.97;;
8466;SDS011;4270;48.148;11.648;2022-09-25T11:50:55;7.87;;;7.07;;
8466;SDS011;4270;48.148;11.648;2022-09-25T12:01:31;9.60;;;8.70;;
8466;SDS011;4270;48.148;11.648;2022-09-25T12:04:13;9.23;;;8.43;;
8466;SDS011;4270;48.148;11.648;2022-09-25T12:17:07;7.63;;;6.93;;
8466;SDS011;4270;48.148;11.648;2022-09-25T12:19:56;7.03;;;6.33;;
8466;SDS011;4270;48.148;11.648;2022-09-25T12:25:03;7.43;;;6.73;;
8466;SDS011;4270;48.148;11.648;2022-09-25T12:27:39;8.07;;;7.27;;
8466;SDS011;4270;48.148;11.648;2022-09-25T12:42:54;8.00;;;7.20;;
8466;SDS011;4270;48.148;11.648;2022-09-25T12:45:22;7.40;;;6.70;;
8466;SDS011;4270;48.148;11.648;2022-09-25T12:48:04;10.17;;;6.27;;
8466;SDS011;4270;48.148;11.648;2022-09-25T12:50:32;7.87;;;6.60;;
8466;SDS011;4270;48.148;11.648;2022-09-25T12:53:01;7.03;;;6.43;;
8466;SDS011;4270;48.148;11.648;2022-09-25T12:55:40;8.30;;;7.40;;
8466;SDS011;4270;48.148;11.648;2022-09-25T13:00:36;8.57;;;7.60;;
8466;SDS011;4270;48.148;11.648;2022-09-25T13:05:32;9.27;;;7.30;;
8466;SDS011;4270;48.148;11.648;2022-09-25T13:08:01;8.10;;;7.33;;
8466;SDS011;4270;48.148;11.648;2022-09-25T13:13:01;8.10;;;7.30;;
8466;SDS011;4270;48.148;11.648;2022-09-25T13:15:31;8.20;;;7.40;;
8466;SDS011;4270;48.148;11.648;2022-09-25T13:17:56;10.20;;;9.13;;
8466;SDS011;4270;48.148;11.648;2022-09-25T13:22:56;9.70;;;8.70;;
8466;SDS011;4270;48.148;11.648;2022-09-25T13:25:22;9.33;;;8.27;;
8466;SDS011;4270;48.148;11.648;2022-09-25T13:27:48;11.07;;;9.57;;
8466;SDS011;4270;48.148;11.648;2022-09-25T13:30:25;9.20;;;8.30;;
8466;SDS011;4270;48.148;11.648;2022-09-25T13:32:51;11.57;;;9.50;;
8466;SDS011;4270;48.148;11.648;2022-09-25T13:35:18;10.40;;;9.30;;
8466;SDS011;4270;48.148;11.648;2022-09-25T13:37:43;11.87;;;9.50;;
8466;SDS011;4270;48.148;11.648;2022-09-25T13:40:30;10.80;;;9.57;;
8466;SDS011;4270;48.148;11.648;2022-09-25T13:43:19;13.20;;;10.97;;
8466;SDS011;4270;48.148;11.648;2022-09-25T13:45:46;15.10;;;11.20;;
8466;SDS011;4270;48.148;11.648;2022-09-25T13:48:31;11.57;;;9.80;;
8466;SDS011;4270;48.148;11.648;2022-09-25T13:53:57;11.87;;;9.50;;
8466;SDS011;4270;48.148;11.648;2022-09-25T13:58:59;12.00;;;9.97;;
8466;SDS011;4270;48.148;11.648;2022-09-25T14:04:10;12.10;;;10.23;;
8466;SDS011;4270;48.148;11.648;2022-09-25T14:06:40;11.70;;;10.30;;
8466;SDS011;4270;48.148;11.648;2022-09-25T14:09:16;12.40;;;11.10;;
8466;SDS011;4270;48.148;11.648;2022-09-25T14:11:43;14.73;;;11.30;;
8466;SDS011;4270;48.148;11.648;2022-09-25T14:14:18;13.00;;;11.10;;
8466;SDS011;4270;48.148;11.648;2022-09-25T14:16:45;17.20;;;12.87;;
8466;SDS011;4270;48.148;11.648;2022-09-25T14:19:15;14.27;;;11.23;;
8466;SDS011;4270;48.148;11.648;2022-09-25T14:21:42;13.70;;;10.97;;
8466;SDS011;4270;48.148;11.648;2022-09-25T14:24:15;17.10;;;13.40;;
8466;SDS011;4270;48.148;11.648;2022-09-25T14:26:43;17.40;;;13.07;;
8466;SDS011;4270;48.148;11.648;2022-09-25T14:29:16;18.37;;;13.67;;
8466;SDS011;4270;48.148;11.648;2022-09-25T14:47:35;13.60;;;12.20;;
8466;SDS011;4270;48.148;11.648;2022-09-25T14:50:01;19.10;;;13.27;;
8466;SDS011;4270;48.148;11.648;2022-09-25T14:52:28;16.03;;;13.40;;
8466;SDS011;4270;48.148;11.648;2022-09-25T14:54:56;13.77;;;12.30;;
8466;SDS011;4270;48.148;11.648;2022-09-25T14:57:27;15.30;;;13.00;;
8466;SDS011;4270;48.148;11.648;2022-09-25T14:59:55;15.77;;;12.10;;
8466;SDS011;4270;48.148;11.648;2022-09-25T15:02:23;14.80;;;11.77;;
8466;SDS011;4270;48.148;11.648;2022-09-25T15:04:50;13.20;;;11.80;;
8466;SDS011;4270;48.148;11.648;2022-09-25T15:07:23;18.17;;;12.83;;
8466;SDS011;4270;48.148;11.648;2022-09-25T15:09:49;15.20;;;12.93;;
8466;SDS011;4270;48.148;11.648;2022-09-25T15:12:29;15.73;;;12.80;;
8466;SDS011;4270;48.148;11.648;2022-09-25T15:17:26;13.87;;;12.30;;
8466;SDS011;4270;48.148;11.648;2022-09-25T15:19:52;14.00;;;12.50;;
8466;SDS011;4270;48.148;11.648;2022-09-25T15:22:20;13.40;;;11.73;;
8466;SDS011;4270;48.148;11.648;2022-09-25T15:24:47;15.10;;;12.27;;
8466;SDS011;4270;48.148;11.648;2022-09-25T15:27:13;15.80;;;12.77;;
8466;SDS011;4270;48.148;11.648;2022-09-25T15:29:41;13.67;;;12.27;;
8466;SDS011;4270;48.148;11.648;2022-09-25T15:32:24;16.97;;;12.83;;
8466;SDS011;4270;48.148;11.648;2022-09-25T15:35:05;15.40;;;12.53;;
8466;SDS011;4270;48.148;11.648;2022-09-25T15:37:30;15.33;;;12.20;;
8466;SDS011;4270;48.148;11.648;2022-09-25T15:39:56;13.27;;;11.73;;
8466;SDS011;4270;48.148;11.648;2022-09-25T15:42:24;14.73;;;12.90;;
8466;SDS011;4270;48.148;11.648;2022-09-25T15:44:50;15.67;;;12.77;;
8466;SDS011;4270;48.148;11.648;2022-09-25T15:47:45;15.37;;;12.90;;
8466;SDS011;4270;48.148;11.648;2022-09-25T15:50:22;16.87;;;14.30;;
8466;SDS011;4270;48.148;11.648;2022-09-25T15:52:51;19.30;;;14.20;;
8466;SDS011;4270;48.148;11.648;2022-09-25T15:55:17;18.50;;;15.50;;
8466;SDS011;4270;48.148;11.648;2022-09-25T15:57:43;27.20;;;20.63;;
8466;SDS011;4270;48.148;11.648;2022-09-25T16:00:41;16.43;;;14.33;;
8466;SDS011;4270;48.148;11.648;2022-09-25T16:03:19;15.87;;;14.17;;
8466;SDS011;4270;48.148;11.648;2022-09-25T16:06:04;22.40;;;17.97;;
8466;SDS011;4270;48.148;11.648;2022-09-25T16:08:30;25.17;;;19.23;;
8466;SDS011;4270;48.148;11.648;2022-09-25T16:13:30;25.70;;;20.50;;
8466;SDS011;4270;48.148;11.648;2022-09-25T16:15:56;26.30;;;20.73;;
8466;SDS011;4270;48.148;11.648;2022-09-25T16:18:30;21.80;;;18.60;;
8466;SDS011;4270;48.148;11.648;2022-09-25T16:23:30;22.97;;;16.00;;
8466;SDS011;4270;48.148;11.648;2022-09-25T16:25:56;17.97;;;15.23;;
8466;SDS011;4270;48.148;11.648;2022-09-25T16:28:26;18.40;;;14.33;;
8466;SDS011;4270;48.148;11.648;2022-09-25T16:31:02;18.47;;;14.67;;
8466;SDS011;4270;48.148;11.648;2022-09-25T16:33:29;18.87;;;14.43;;
8466;SDS011;4270;48.148;11.648;2022-09-25T16:35:55;20.37;;;15.47;;
8466;SDS011;4270;48.148;11.648;2022-09-25T16:38:24;19.20;;;16.37;;
8466;SDS011;4270;48.148;11.648;2022-09-25T16:41:00;20.93;;;15.70;;
8466;SDS011;4270;48.148;11.648;2022-09-25T16:43:26;21.47;;;15.60;;
8466;SDS011;4270;48.148;11.648;2022-09-25T16:45:58;18.87;;;16.00;;
8466;SDS011;4270;48.148;11.648;2022-09-25T16:48:57;21.70;;;16.40;;
8466;SDS011;4270;48.148;11.648;2022-09-25T16:51:20;26.07;;;17.47;;
8466;SDS011;4270;48.148;11.648;2022-09-25T16:53:45;22.73;;;17.20;;
8466;SDS011;4270;48.148;11.648;2022-09-25T16:56:18;21.83;;;16.30;;
8466;SDS011;4270;48.148;11.648;2022-09-25T16:58:43;24.00;;;17.50;;
8466;SDS011;4270;48.148;11.648;2022-09-25T17:01:10;20.90;;;17.37;;
8466;SDS011;4270;48.148;11.648;2022-09-25T17:03:35;23.07;;;18.30;;
8466;SDS011;4270;48.148;11.648;2022-09-25T17:06:13;23.83;;;18.90;;
8466;SDS011;4270;48.148;11.648;2022-09-25T17:08:39;24.07;;;18.40;;
8466;SDS011;4270;48.148;11.648;2022-09-25T17:11:04;27.73;;;18.37;;
8466;SDS011;4270;48.148;11.648;2022-09-25T17:13:29;22.53;;;18.40;;
8466;SDS011;4270;48.148;11.648;2022-09-25T17:15:55;26.57;;;19.80;;
8466;SDS011;4270;48.148;11.648;2022-09-25T17:18:21;25.13;;;18.20;;
8466;SDS011;4270;48.148;11.648;2022-09-25T17:20:49;26.50;;;18.57;;
8466;SDS011;4270;48.148;11.648;2022-09-25T17:23:16;27.13;;;17.83;;
8466;SDS011;4270;48.148;11.648;2022-09-25T17:25:43;23.37;;;18.70;;